Time;durP1;ratioP1;P1;durP2;ratioP2;P2;SDS_P1;SDS_P2;PMS_P1;PMS_P2;Temp;Humidity;BMP_temperature;BMP_pressure;BME280_temperature;BME280_humidity;BME280_pressure;Samples;Min_cycle;Max_cycle;Signal;HPM_P1;HPM_P2
2021/09/07 00:00:45;;;;;;;17.97;12.50;;;;;;;;;;5053418;28;21157;-44
2021/09/07 00:03:11;;;;;;;19.20;12.80;;;;;;;;;;5053630;28;20751;-43
2021/09/07 00:05:37;;;;;;;20.70;12.50;;;;;;;;;;5053751;28;20400;-44
2021/09/07 00:08:03;;;;;;;15.73;11.80;;;;;;;;;;5053787;28;20529;-44
2021/09/07 00:10:29;;;;;;;23.67;15.23;;;;;;;;;;5053413;28;20401;-45
2021/09/07 00:12:55;;;;;;;20.53;12.10;;;;;;;;;;5053599;28;20394;-45
2021/09/07 00:15:21;;;;;;;19.43;13.30;;;;;;;;;;5050008;28;20406;-44
2021/09/07 00:17:47;;;;;;;27.50;13.70;;;;;;;;;;5053395;28;20384;-44
2021/09/07 00:20:14;;;;;;;26.47;13.03;;;;;;;;;;5053191;28;20517;-45
2021/09/07 00:22:41;;;;;;;33.47;12.77;;;;;;;;;;5053356;28;20437;-45
2021/09/07 00:25:07;;;;;;;25.27;13.67;;;;;;;;;;5053429;28;20369;-44
2021/09/07 00:27:33;;;;;;;21.67;13.57;;;;;;;;;;5053316;28;20404;-46
2021/09/07 00:29:59;;;;;;;22.60;13.50;;;;;;;;;;5053128;28;20554;-45
2021/09/07 00:32:25;;;;;;;18.93;12.83;;;;;;;;;;5053127;28;20407;-44
2021/09/07 00:34:51;;;;;;;18.67;12.53;;;;;;;;;;5053217;28;20412;-44
2021/09/07 00:37:17;;;;;;;16.47;12.97;;;;;;;;;;5053166;28;20465;-45
2021/09/07 00:39:43;;;;;;;18.37;12.50;;;;;;;;;;5048105;28;21006;-44
2021/09/07 00:42:09;;;;;;;22.00;13.17;;;;;;;;;;5052648;28;20888;-44
2021/09/07 00:44:35;;;;;;;21.87;12.80;;;;;;;;;;5053033;28;20414;-45
2021/09/07 00:47:04;;;;;;;19.93;12.77;;;;;;;;;;5052895;28;20405;-47
2021/09/07 00:49:31;;;;;;;24.20;14.40;;;;;;;;;;5052801;28;20399;-44
2021/09/07 00:51:57;;;;;;;17.83;12.87;;;;;;;;;;5052592;28;20921;-44
2021/09/07 00:54:26;;;;;;;21.00;13.77;;;;;;;;;;5052790;28;20409;-44
2021/09/07 00:56:53;;;;;;;19.60;13.00;;;;;;;;;;5052720;28;20403;-44
2021/09/07 00:59:20;;;;;;;18.60;12.63;;;;;;;;;;5052470;28;20419;-45
2021/09/07 01:01:46;;;;;;;20.17;13.07;;;;;;;;;;5051740;28;20399;-45
2021/09/07 01:04:12;;;;;;;22.70;13.60;;;;;;;;;;5052032;28;20372;-47
2021/09/07 01:06:38;;;;;;;27.57;12.73;;;;;;;;;;5048701;28;20536;-45
2021/09/07 01:09:04;;;;;;;25.20;15.10;;;;;;;;;;5052415;28;20448;-44
2021/09/07 01:11:30;;;;;;;23.53;15.53;;;;;;;;;;5052205;28;20411;-44
2021/09/07 01:13:56;;;;;;;25.30;15.70;;;;;;;;;;5048690;28;20431;-44
2021/09/07 01:16:22;;;;;;;39.27;15.20;;;;;;;;;;5052355;28;20384;-44
2021/09/07 01:18:48;;;;;;;24.80;15.73;;;;;;;;;;5052227;28;20405;-44
2021/09/07 01:21:15;;;;;;;27.23;14.50;;;;;;;;;;5052042;28;20411;-44
2021/09/07 01:23:42;;;;;;;18.87;14.70;;;;;;;;;;5052245;28;20422;-44
2021/09/07 01:26:09;;;;;;;21.90;14.70;;;;;;;;;;5052367;28;20736;-44
2021/09/07 01:28:35;;;;;;;25.40;15.53;;;;;;;;;;5048025;28;20453;-44
2021/09/07 01:31:03;;;;;;;24.80;15.47;;;;;;;;;;5051926;28;20431;-44
2021/09/07 01:33:29;;;;;;;21.53;13.70;;;;;;;;;;5052195;28;20422;-44
2021/09/07 01:35:56;;;;;;;22.00;14.10;;;;;;;;;;5052089;28;20407;-45
2021/09/07 01:38:22;;;;;;;23.33;15.40;;;;;;;;;;5052068;28;20857;-46
2021/09/07 01:40:48;;;;;;;20.23;14.73;;;;;;;;;;5033810;28;20468;-53
2021/09/07 01:43:15;;;;;;;21.17;14.10;;;;;;;;;;5051941;28;20384;-47
2021/09/07 01:45:41;;;;;;;18.70;13.97;;;;;;;;;;5051868;28;20930;-47
2021/09/07 01:48:07;;;;;;;19.83;13.40;;;;;;;;;;5051894;28;20376;-48
2021/09/07 01:50:32;;;;;;;21.17;13.47;;;;;;;;;;5051595;28;20426;-43
2021/09/07 01:52:58;;;;;;;24.50;14.67;;;;;;;;;;5047284;28;20935;-44
2021/09/07 01:55:24;;;;;;;23.00;15.70;;;;;;;;;;5050635;28;20412;-45
2021/09/07 01:57:50;;;;;;;25.00;14.33;;;;;;;;;;5051756;28;20444;-45
2021/09/07 02:00:16;;;;;;;27.77;13.90;;;;;;;;;;5051360;28;20491;-45
2021/09/07 02:02:42;;;;;;;25.13;15.13;;;;;;;;;;5051699;28;20375;-45
2021/09/07 02:05:08;;;;;;;20.03;13.73;;;;;;;;;;5051909;28;20372;-44
2021/09/07 02:07:34;;;;;;;22.87;15.43;;;;;;;;;;5051727;28;20475;-45
2021/09/07 02:10:00;;;;;;;22.53;14.50;;;;;;;;;;5051549;28;20483;-44
2021/09/07 02:12:26;;;;;;;19.63;13.90;;;;;;;;;;5051504;28;20384;-47
2021/09/07 02:14:53;;;;;;;22.87;14.13;;;;;;;;;;5051596;28;20459;-44
2021/09/07 02:17:19;;;;;;;23.00;14.40;;;;;;;;;;5051704;28;20498;-44
2021/09/07 02:19:45;;;;;;;27.20;14.93;;;;;;;;;;5047995;28;20976;-44
2021/09/07 02:22:11;;;;;;;23.33;15.30;;;;;;;;;;5051324;28;20763;-45
2021/09/07 02:24:37;;;;;;;25.73;14.63;;;;;;;;;;5051585;28;20495;-46
2021/09/07 02:27:04;;;;;;;27.27;15.37;;;;;;;;;;5051459;28;20401;-47
2021/09/07 02:29:30;;;;;;;27.37;17.03;;;;;;;;;;5051357;28;20405;-46
2021/09/07 02:31:56;;;;;;;26.70;16.00;;;;;;;;;;5051224;28;20408;-46
2021/09/07 02:34:22;;;;;;;29.70;15.83;;;;;;;;;;5051496;28;20383;-47
2021/09/07 02:36:48;;;;;;;26.53;15.60;;;;;;;;;;5051431;28;20434;-44
2021/09/07 02:39:14;;;;;;;27.70;16.63;;;;;;;;;;5051597;28;20453;-44
2021/09/07 02:41:40;;;;;;;26.27;14.93;;;;;;;;;;5051053;28;20387;-44
2021/09/07 02:44:06;;;;;;;25.43;15.03;;;;;;;;;;5051294;28;20775;-44
2021/09/07 02:46:32;;;;;;;23.00;15.13;;;;;;;;;;5047908;28;20459;-44
2021/09/07 02:48:58;;;;;;;33.43;15.97;;;;;;;;;;5051359;28;20480;-44
2021/09/07 02:51:24;;;;;;;29.53;15.40;;;;;;;;;;5051027;28;20420;-45
2021/09/07 02:53:50;;;;;;;28.80;15.90;;;;;;;;;;5051276;28;20463;-45
2021/09/07 02:56:16;;;;;;;21.40;13.83;;;;;;;;;;5051253;28;20435;-44
2021/09/07 02:58:42;;;;;;;36.50;15.60;;;;;;;;;;5051058;28;20427;-45
2021/09/07 03:01:08;;;;;;;31.60;16.07;;;;;;;;;;5050821;28;20413;-47
2021/09/07 03:03:34;;;;;;;39.07;18.13;;;;;;;;;;5052293;28;20462;-44
2021/09/07 03:06:01;;;;;;;30.97;18.13;;;;;;;;;;5054928;28;20382;-44
2021/09/07 03:08:27;;;;;;;25.87;15.77;;;;;;;;;;5054801;28;20400;-45
2021/09/07 03:10:53;;;;;;;24.37;15.70;;;;;;;;;;5051131;28;20475;-44
2021/09/07 03:13:19;;;;;;;26.87;15.63;;;;;;;;;;5054749;28;20401;-44
2021/09/07 03:15:46;;;;;;;30.00;15.87;;;;;;;;;;5054696;28;20773;-43
2021/09/07 03:18:12;;;;;;;27.40;18.70;;;;;;;;;;5054638;28;20372;-44
2021/09/07 03:20:38;;;;;;;34.57;17.80;;;;;;;;;;5054205;28;20479;-44
2021/09/07 03:23:04;;;;;;;27.87;17.53;;;;;;;;;;5054330;28;20888;-44
2021/09/07 03:25:30;;;;;;;29.17;17.57;;;;;;;;;;5054557;28;20467;-44
2021/09/07 03:27:56;;;;;;;30.47;17.67;;;;;;;;;;5036486;28;20409;-44
2021/09/07 03:30:23;;;;;;;26.50;18.90;;;;;;;;;;5054133;28;20470;-44
2021/09/07 03:32:49;;;;;;;35.13;19.60;;;;;;;;;;5054338;28;20388;-45
2021/09/07 03:35:15;;;;;;;31.47;18.03;;;;;;;;;;5054964;28;20434;-50
2021/09/07 03:37:41;;;;;;;31.90;19.77;;;;;;;;;;5051677;28;20415;-50
2021/09/07 03:40:08;;;;;;;32.73;19.03;;;;;;;;;;5053997;28;20453;-50
2021/09/07 03:42:34;;;;;;;29.50;18.20;;;;;;;;;;5053911;28;20766;-50
2021/09/07 03:45:04;;;;;;;29.77;19.00;;;;;;;;;;5054177;28;20424;-49
2021/09/07 03:47:30;;;;;;;25.93;16.80;;;;;;;;;;5054134;28;20376;-50
2021/09/07 03:49:56;;;;;;;28.37;16.67;;;;;;;;;;5052152;28;20973;-50
2021/09/07 03:52:22;;;;;;;28.53;14.60;;;;;;;;;;5053772;28;20488;-50
2021/09/07 03:54:48;;;;;;;21.60;15.13;;;;;;;;;;5054006;28;20380;-50
2021/09/07 03:57:14;;;;;;;26.50;14.70;;;;;;;;;;5054102;28;20406;-50
2021/09/07 03:59:40;;;;;;;19.37;13.23;;;;;;;;;;5053775;28;20947;-49
2021/09/07 04:02:06;;;;;;;24.70;14.97;;;;;;;;;;5053601;28;20520;-49
2021/09/07 04:04:32;;;;;;;23.10;13.93;;;;;;;;;;5053804;28;20463;-49
2021/09/07 04:06:58;;;;;;;24.40;13.70;;;;;;;;;;5053769;28;20507;-49
2021/09/07 04:09:25;;;;;;;21.10;13.57;;;;;;;;;;5049044;28;20539;-49
2021/09/07 04:11:51;;;;;;;23.83;15.03;;;;;;;;;;5053411;28;20372;-49
2021/09/07 04:14:17;;;;;;;24.27;14.77;;;;;;;;;;5053264;28;20403;-50
2021/09/07 04:16:43;;;;;;;22.60;14.00;;;;;;;;;;5052937;28;20375;-50
2021/09/07 04:19:09;;;;;;;22.13;14.47;;;;;;;;;;5053413;28;20499;-48
2021/09/07 04:21:35;;;;;;;21.57;15.03;;;;;;;;;;5053028;28;20815;-49
2021/09/07 04:24:01;;;;;;;22.93;13.77;;;;;;;;;;5053369;28;20429;-48
2021/09/07 04:26:28;;;;;;;29.70;15.27;;;;;;;;;;5053386;28;20460;-47
2021/09/07 04:28:54;;;;;;;19.73;14.90;;;;;;;;;;5053247;28;20940;-50
2021/09/07 04:31:20;;;;;;;19.30;13.50;;;;;;;;;;5050244;28;20484;-50
2021/09/07 04:33:46;;;;;;;20.57;14.00;;;;;;;;;;5053276;28;20401;-48
2021/09/07 04:36:12;;;;;;;19.70;13.20;;;;;;;;;;5053077;28;20518;-49
2021/09/07 04:38:38;;;;;;;20.47;13.60;;;;;;;;;;5053119;28;20921;-49
2021/09/07 04:41:04;;;;;;;16.87;12.60;;;;;;;;;;5052633;28;20466;-48
2021/09/07 04:43:30;;;;;;;18.43;13.17;;;;;;;;;;5053066;28;20910;-50
2021/09/07 04:45:56;;;;;;;21.40;12.60;;;;;;;;;;5053011;28;20408;-50
2021/09/07 04:48:22;;;;;;;24.30;14.17;;;;;;;;;;5052959;28;21101;-49
2021/09/07 04:50:48;;;;;;;20.37;14.37;;;;;;;;;;5052524;28;20423;-46
2021/09/07 04:53:14;;;;;;;22.17;14.27;;;;;;;;;;5052867;28;20405;-50
2021/09/07 04:55:40;;;;;;;21.63;13.23;;;;;;;;;;5052762;28;20807;-50
2021/09/07 04:58:06;;;;;;;21.60;14.20;;;;;;;;;;5052784;28;20372;-49
2021/09/07 05:00:32;;;;;;;20.67;13.17;;;;;;;;;;5050409;28;20812;-50
2021/09/07 05:02:58;;;;;;;24.23;13.60;;;;;;;;;;5052537;28;20411;-49
2021/09/07 05:05:24;;;;;;;22.00;13.73;;;;;;;;;;5052661;28;20414;-48
2021/09/07 05:07:50;;;;;;;21.23;12.90;;;;;;;;;;5052584;28;20382;-48
2021/09/07 05:10:16;;;;;;;19.80;12.40;;;;;;;;;;5052396;28;20401;-49
2021/09/07 05:12:42;;;;;;;28.60;14.80;;;;;;;;;;5052242;28;20401;-50
2021/09/07 05:15:08;;;;;;;23.10;13.97;;;;;;;;;;5052487;28;20499;-50
2021/09/07 05:17:34;;;;;;;17.83;13.90;;;;;;;;;;5052319;28;21062;-50
2021/09/07 05:20:01;;;;;;;19.97;13.80;;;;;;;;;;5052124;28;20550;-50
2021/09/07 05:22:27;;;;;;;19.50;14.53;;;;;;;;;;5051962;28;20941;-48
2021/09/07 05:24:53;;;;;;;19.57;14.17;;;;;;;;;;5052257;28;20408;-50
2021/09/07 05:27:19;;;;;;;22.77;13.90;;;;;;;;;;5052026;28;20409;-50
2021/09/07 05:29:45;;;;;;;24.73;14.30;;;;;;;;;;5048667;28;20942;-50
2021/09/07 05:32:11;;;;;;;21.73;14.50;;;;;;;;;;5051794;28;20828;-50
2021/09/07 05:34:37;;;;;;;18.67;13.47;;;;;;;;;;5052162;28;20419;-49
2021/09/07 05:37:04;;;;;;;26.77;14.67;;;;;;;;;;5052116;28;20405;-50
2021/09/07 05:39:30;;;;;;;21.23;14.70;;;;;;;;;;5051875;28;20875;-50
2021/09/07 05:41:56;;;;;;;26.10;16.73;;;;;;;;;;5051804;28;20414;-50
2021/09/07 05:44:22;;;;;;;20.27;13.70;;;;;;;;;;5052021;28;20372;-50
2021/09/07 05:46:48;;;;;;;20.00;13.90;;;;;;;;;;5051951;28;20380;-49
2021/09/07 05:49:15;;;;;;;21.40;13.97;;;;;;;;;;5051915;28;20377;-50
2021/09/07 05:51:41;;;;;;;24.37;15.03;;;;;;;;;;5051621;28;20434;-49
2021/09/07 05:54:07;;;;;;;22.67;14.93;;;;;;;;;;5051822;28;20377;-49
2021/09/07 05:56:33;;;;;;;25.37;15.27;;;;;;;;;;5051903;28;20410;-48
2021/09/07 05:58:59;;;;;;;26.90;14.87;;;;;;;;;;5050120;28;20452;-47
2021/09/07 06:01:25;;;;;;;21.90;14.70;;;;;;;;;;5051512;28;20435;-47
2021/09/07 06:03:51;;;;;;;23.27;14.47;;;;;;;;;;5051825;28;20379;-49
2021/09/07 06:06:17;;;;;;;23.50;15.20;;;;;;;;;;5051823;28;20436;-50
2021/09/07 06:08:43;;;;;;;27.33;15.00;;;;;;;;;;5051639;28;20414;-50
2021/09/07 06:11:09;;;;;;;23.73;13.87;;;;;;;;;;5051376;28;21038;-49
2021/09/07 06:13:36;;;;;;;22.60;15.30;;;;;;;;;;5051694;28;20399;-49
2021/09/07 06:16:02;;;;;;;22.93;15.03;;;;;;;;;;5051518;28;20409;-50
2021/09/07 06:18:28;;;;;;;27.63;16.17;;;;;;;;;;5051658;28;20449;-49
2021/09/07 06:20:54;;;;;;;31.00;17.40;;;;;;;;;;5051241;28;20914;-49
2021/09/07 06:23:21;;;;;;;26.40;17.60;;;;;;;;;;5051442;28;20429;-50
2021/09/07 06:25:47;;;;;;;26.53;16.03;;;;;;;;;;5051713;28;20398;-50
2021/09/07 06:28:13;;;;;;;31.50;16.90;;;;;;;;;;5051528;28;20419;-51
2021/09/07 06:30:39;;;;;;;31.63;18.40;;;;;;;;;;5049393;28;20832;-50
2021/09/07 06:33:05;;;;;;;25.60;15.30;;;;;;;;;;5051536;28;20880;-51
2021/09/07 06:35:31;;;;;;;23.13;15.20;;;;;;;;;;5051864;28;20382;-50
2021/09/07 06:37:57;;;;;;;21.97;14.93;;;;;;;;;;5051675;28;20436;-50
2021/09/07 06:40:23;;;;;;;19.23;14.00;;;;;;;;;;5055245;28;20952;-49
2021/09/07 06:42:49;;;;;;;21.33;14.03;;;;;;;;;;5055122;28;20884;-50
2021/09/07 06:45:16;;;;;;;28.10;14.80;;;;;;;;;;5054637;28;20843;-50
2021/09/07 06:47:42;;;;;;;21.60;14.43;;;;;;;;;;5054827;28;20421;-50
2021/09/07 06:50:11;;;;;;;21.83;14.87;;;;;;;;;;5054571;28;20428;-50
2021/09/07 06:52:36;;;;;;;25.43;13.73;;;;;;;;;;5054385;28;20387;-50
2021/09/07 06:55:03;;;;;;;20.80;13.40;;;;;;;;;;5054711;28;20425;-50
2021/09/07 06:57:28;;;;;;;26.73;14.27;;;;;;;;;;5054368;28;20398;-50
2021/09/07 06:59:56;;;;;;;20.63;14.57;;;;;;;;;;5051705;28;20475;-49
2021/09/07 07:02:22;;;;;;;23.60;14.57;;;;;;;;;;5054024;28;20377;-49
2021/09/07 07:04:48;;;;;;;19.70;14.70;;;;;;;;;;5054440;28;20404;-49
2021/09/07 07:07:14;;;;;;;20.37;14.43;;;;;;;;;;5053244;28;20432;-48
2021/09/07 07:09:40;;;;;;;20.90;14.13;;;;;;;;;;5054288;28;20974;-48
2021/09/07 07:12:07;;;;;;;21.10;14.37;;;;;;;;;;5053914;28;20892;-49
2021/09/07 07:14:33;;;;;;;23.23;15.43;;;;;;;;;;5054024;28;20384;-50
2021/09/07 07:16:59;;;;;;;27.30;15.30;;;;;;;;;;5054336;28;20408;-50
2021/09/07 07:19:25;;;;;;;20.40;14.70;;;;;;;;;;5053849;28;21271;-50
2021/09/07 07:21:51;;;;;;;21.10;14.20;;;;;;;;;;5053662;28;20404;-50
2021/09/07 07:24:18;;;;;;;19.67;15.00;;;;;;;;;;5053947;28;20476;-49
2021/09/07 07:26:46;;;;;;;19.80;13.20;;;;;;;;;;5054015;28;20880;-49
2021/09/07 07:29:12;;;;;;;21.97;14.70;;;;;;;;;;5049504;28;20469;-50
2021/09/07 07:31:39;;;;;;;25.10;14.30;;;;;;;;;;5047399;28;20797;-51
2021/09/07 07:34:05;;;;;;;17.23;12.83;;;;;;;;;;5034405;28;20468;-50
2021/09/07 07:36:33;;;;;;;21.33;14.73;;;;;;;;;;5034503;28;20489;-50
2021/09/07 07:39:00;;;;;;;19.90;14.57;;;;;;;;;;5034328;28;20411;-51
2021/09/07 07:41:25;;;;;;;20.10;15.13;;;;;;;;;;5034100;28;20445;-50
2021/09/07 07:43:51;;;;;;;22.77;14.90;;;;;;;;;;5034340;28;20472;-50
2021/09/07 07:46:18;;;;;;;22.07;14.87;;;;;;;;;;5034182;28;20400;-50
2021/09/07 07:48:44;;;;;;;25.13;15.23;;;;;;;;;;5034220;28;20399;-50
2021/09/07 07:51:10;;;;;;;24.50;16.30;;;;;;;;;;5033738;28;20454;-51
2021/09/07 07:53:37;;;;;;;20.90;13.77;;;;;;;;;;5034162;28;20414;-50
2021/09/07 07:56:03;;;;;;;20.97;15.67;;;;;;;;;;5034075;28;20491;-50
2021/09/07 07:58:29;;;;;;;25.90;15.60;;;;;;;;;;5034120;28;20411;-51
2021/09/07 08:00:56;;;;;;;28.50;14.53;;;;;;;;;;5045277;28;20477;-51
2021/09/07 08:03:22;;;;;;;19.17;14.40;;;;;;;;;;5053699;28;20975;-48
2021/09/07 08:05:48;;;;;;;21.13;15.87;;;;;;;;;;5053893;28;20431;-51
2021/09/07 08:08:14;;;;;;;22.33;14.60;;;;;;;;;;5053800;28;20883;-50
2021/09/07 08:10:40;;;;;;;25.67;13.20;;;;;;;;;;5053469;28;20435;-50
2021/09/07 08:13:06;;;;;;;24.90;15.37;;;;;;;;;;5053546;28;20404;-50
2021/09/07 08:15:32;;;;;;;18.10;14.00;;;;;;;;;;5053578;28;20418;-50
2021/09/07 08:17:59;;;;;;;22.20;14.27;;;;;;;;;;5053673;28;20406;-50
2021/09/07 08:20:26;;;;;;;24.90;15.17;;;;;;;;;;5053565;28;20979;-49
2021/09/07 08:22:52;;;;;;;28.43;16.27;;;;;;;;;;5053122;28;20425;-50
2021/09/07 08:25:17;;;;;;;25.60;16.00;;;;;;;;;;5053435;28;20762;-50
2021/09/07 08:27:43;;;;;;;28.60;15.97;;;;;;;;;;5053448;28;20447;-50
2021/09/07 08:30:10;;;;;;;24.27;13.07;;;;;;;;;;5049042;28;20454;-48
2021/09/07 08:32:40;;;;;;;22.63;15.07;;;;;;;;;;5053026;28;20462;-49
2021/09/07 08:35:06;;;;;;;25.03;17.30;;;;;;;;;;5053213;28;20915;-48
2021/09/07 08:37:32;;;;;;;24.53;16.53;;;;;;;;;;5053219;28;20409;-50
2021/09/07 08:39:58;;;;;;;23.53;16.07;;;;;;;;;;5052993;28;20525;-49
2021/09/07 08:42:24;;;;;;;24.70;16.57;;;;;;;;;;5052844;28;20408;-49
2021/09/07 08:44:50;;;;;;;20.63;14.70;;;;;;;;;;5053105;28;20404;-49
2021/09/07 08:47:17;;;;;;;25.57;15.00;;;;;;;;;;5053068;28;20439;-51
2021/09/07 08:49:44;;;;;;;24.27;16.43;;;;;;;;;;5052816;28;20502;-49
2021/09/07 08:52:11;;;;;;;23.30;15.30;;;;;;;;;;5052572;28;20405;-49
2021/09/07 08:54:37;;;;;;;21.20;14.30;;;;;;;;;;5052930;28;20768;-48
2021/09/07 08:57:03;;;;;;;22.73;15.87;;;;;;;;;;5052772;28;20406;-48
2021/09/07 08:59:29;;;;;;;26.53;15.53;;;;;;;;;;5049496;28;20618;-49
2021/09/07 09:01:57;;;;;;;22.90;15.57;;;;;;;;;;5051948;28;20405;-51
2021/09/07 09:04:29;;;;;;;17.90;13.07;;;;;;;;;;5052735;28;20408;-51
2021/09/07 09:06:56;;;;;;;21.00;14.33;;;;;;;;;;5052667;28;20432;-50
2021/09/07 09:09:22;;;;;;;19.87;14.97;;;;;;;;;;5052625;28;20467;-50
2021/09/07 09:11:55;;;;;;;26.00;14.57;;;;;;;;;;5052441;28;20405;-50
2021/09/07 09:14:31;;;;;;;19.37;13.30;;;;;;;;;;5052552;28;20408;-49
2021/09/07 09:16:57;;;;;;;18.53;12.67;;;;;;;;;;5052464;28;20429;-49
2021/09/07 09:19:23;;;;;;;15.33;12.27;;;;;;;;;;5052042;28;20507;-51
2021/09/07 09:21:49;;;;;;;17.40;12.63;;;;;;;;;;5052106;28;20398;-50
2021/09/07 09:24:19;;;;;;;16.90;12.93;;;;;;;;;;5052403;28;20403;-47
2021/09/07 09:26:55;;;;;;;15.07;10.97;;;;;;;;;;5034883;28;20418;-51
2021/09/07 09:29:22;;;;;;;14.40;10.03;;;;;;;;;;5047744;28;20943;-51
2021/09/07 09:31:49;;;;;;;17.47;12.23;;;;;;;;;;5052000;28;20878;-50
2021/09/07 09:34:15;;;;;;;17.47;12.23;;;;;;;;;;5052114;28;20405;-51
2021/09/07 09:36:46;;;;;;;17.43;12.00;;;;;;;;;;5052758;28;20505;-46
2021/09/07 09:39:12;;;;;;;17.60;12.87;;;;;;;;;;5052049;28;21045;-49
2021/09/07 09:41:50;;;;;;;20.47;11.63;;;;;;;;;;5033961;28;20527;-46
2021/09/07 09:44:27;;;;;;;18.20;11.20;;;;;;;;;;5032062;28;20408;-48
2021/09/07 09:46:53;;;;;;;14.30;10.33;;;;;;;;;;5032073;28;20464;-49
2021/09/07 09:49:19;;;;;;;16.63;9.90;;;;;;;;;;5031941;28;20474;-46
2021/09/07 09:51:45;;;;;;;13.27;9.93;;;;;;;;;;5031789;28;20502;-46
2021/09/07 09:54:10;;;;;;;14.50;11.47;;;;;;;;;;5032108;28;20489;-45
2021/09/07 09:56:37;;;;;;;13.00;10.23;;;;;;;;;;5031907;28;20406;-45
2021/09/07 09:59:03;;;;;;;19.70;12.00;;;;;;;;;;5032111;28;20829;-46
2021/09/07 10:01:30;;;;;;;16.80;10.53;;;;;;;;;;5045207;28;20452;-46
2021/09/07 10:04:00;;;;;;;12.97;9.43;;;;;;;;;;5051646;28;20476;-46
2021/09/07 10:06:26;;;;;;;10.27;9.10;;;;;;;;;;5051649;28;20974;-45
2021/09/07 10:08:52;;;;;;;13.60;9.87;;;;;;;;;;5051003;28;20394;-45
2021/09/07 10:11:22;;;;;;;10.93;9.10;;;;;;;;;;5051242;28;20547;-45
2021/09/07 10:13:50;;;;;;;12.80;9.47;;;;;;;;;;5053398;28;20450;-45
2021/09/07 10:16:41;;;;;;;12.23;9.33;;;;;;;;;;5055857;28;20484;-46
2021/09/07 10:26:37;;;;;;;13.00;9.00;;;;;;;;;;5055842;28;20401;-46
2021/09/07 10:29:06;;;;;;;17.17;10.27;;;;;;;;;;5055615;28;20474;-46
2021/09/07 10:31:44;;;;;;;16.10;10.77;;;;;;;;;;5051301;28;20486;-45
2021/09/07 10:34:14;;;;;;;13.33;8.87;;;;;;;;;;5055493;28;20485;-45
2021/09/07 10:37:10;;;;;;;22.57;8.40;;;;;;;;;;5055470;28;20543;-46
2021/09/07 10:39:37;;;;;;;12.70;8.23;;;;;;;;;;5034481;28;20453;-45
2021/09/07 10:42:04;;;;;;;13.60;9.20;;;;;;;;;;5055124;28;20404;-48
2021/09/07 10:44:31;;;;;;;11.13;9.30;;;;;;;;;;5055155;28;20402;-45
2021/09/07 10:47:00;;;;;;;11.93;9.50;;;;;;;;;;5055055;28;20405;-49
2021/09/07 10:49:26;;;;;;;11.40;9.90;;;;;;;;;;5055068;28;20885;-47
2021/09/07 10:52:08;;;;;;;11.00;8.97;;;;;;;;;;5054933;28;20405;-47
2021/09/07 10:54:35;;;;;;;10.03;8.33;;;;;;;;;;5055109;28;20396;-48
2021/09/07 10:57:01;;;;;;;11.80;8.70;;;;;;;;;;5055084;28;20893;-46
2021/09/07 10:59:46;;;;;;;12.53;8.80;;;;;;;;;;5054815;28;20453;-46
2021/09/07 11:02:31;;;;;;;10.53;8.40;;;;;;;;;;5050749;28;20444;-45
2021/09/07 11:04:58;;;;;;;14.67;8.77;;;;;;;;;;5054946;28;20935;-47
2021/09/07 11:07:43;;;;;;;10.73;8.20;;;;;;;;;;5054853;28;20393;-46
2021/09/07 11:10:15;;;;;;;13.13;9.70;;;;;;;;;;5054676;28;20500;-46
2021/09/07 11:12:50;;;;;;;13.90;9.27;;;;;;;;;;5054537;28;20883;-47
2021/09/07 11:15:20;;;;;;;13.83;8.93;;;;;;;;;;5054741;28;20393;-48
2021/09/07 11:17:50;;;;;;;11.10;8.70;;;;;;;;;;5054668;28;20801;-47
2021/09/07 11:20:17;;;;;;;9.30;8.40;;;;;;;;;;5054364;28;20460;-46
2021/09/07 11:22:43;;;;;;;10.13;8.57;;;;;;;;;;5054528;28;20789;-45
2021/09/07 11:25:10;;;;;;;10.37;9.33;;;;;;;;;;5054109;28;20405;-46
2021/09/07 11:27:58;;;;;;;10.03;8.80;;;;;;;;;;5054414;28;20474;-49
2021/09/07 11:30:43;;;;;;;9.33;8.43;;;;;;;;;;5052327;28;20456;-46
2021/09/07 11:33:10;;;;;;;12.10;8.47;;;;;;;;;;5053832;28;20458;-45
2021/09/07 11:35:47;;;;;;;10.43;8.80;;;;;;;;;;5054425;28;20480;-45
2021/09/07 11:38:14;;;;;;;13.83;8.93;;;;;;;;;;5046104;28;20445;-46
2021/09/07 11:40:41;;;;;;;14.83;9.50;;;;;;;;;;5034190;28;20461;-46
2021/09/07 11:43:08;;;;;;;12.27;9.30;;;;;;;;;;5033964;28;21150;-48
2021/09/07 11:45:34;;;;;;;11.77;9.70;;;;;;;;;;5034252;28;20552;-46
2021/09/07 11:48:02;;;;;;;12.27;9.57;;;;;;;;;;5034150;28;20782;-49
2021/09/07 11:50:30;;;;;;;10.80;9.70;;;;;;;;;;5034061;28;20426;-48
2021/09/07 11:52:57;;;;;;;11.37;9.70;;;;;;;;;;5033979;28;20443;-45
2021/09/07 11:55:36;;;;;;;12.53;9.70;;;;;;;;;;5034043;28;20783;-48
2021/09/07 11:58:02;;;;;;;10.87;9.77;;;;;;;;;;5033985;28;20413;-46
2021/09/07 12:00:28;;;;;;;13.47;10.00;;;;;;;;;;5032579;28;20470;-46
2021/09/07 12:03:10;;;;;;;37.80;11.37;;;;;;;;;;5053592;28;20481;-47
2021/09/07 12:05:54;;;;;;;13.00;10.00;;;;;;;;;;5053763;28;20401;-46
2021/09/07 12:08:21;;;;;;;12.20;9.70;;;;;;;;;;5053609;28;20401;-46
2021/09/07 12:10:56;;;;;;;13.30;9.53;;;;;;;;;;5053532;28;20508;-46
2021/09/07 12:13:23;;;;;;;11.57;9.20;;;;;;;;;;5053486;28;20412;-46
2021/09/07 12:15:52;;;;;;;13.07;10.20;;;;;;;;;;5053624;28;20398;-48
2021/09/07 12:18:36;;;;;;;11.27;8.97;;;;;;;;;;5053521;28;20394;-46
2021/09/07 12:21:05;;;;;;;10.53;9.43;;;;;;;;;;5053311;28;20462;-45
2021/09/07 12:23:32;;;;;;;11.20;9.03;;;;;;;;;;5053095;28;20805;-49
2021/09/07 12:25:58;;;;;;;11.70;10.10;;;;;;;;;;5053398;28;20804;-46
2021/09/07 12:28:24;;;;;;;9.73;8.60;;;;;;;;;;5044305;28;20410;-46
2021/09/07 12:30:50;;;;;;;13.00;8.87;;;;;;;;;;5041149;28;20449;-48
2021/09/07 12:33:21;;;;;;;10.63;8.77;;;;;;;;;;5052904;28;20405;-46
2021/09/07 12:35:54;;;;;;;13.43;8.90;;;;;;;;;;5052335;28;20800;-46
2021/09/07 12:38:21;;;;;;;10.83;9.73;;;;;;;;;;5053093;28;20413;-48
2021/09/07 12:40:49;;;;;;;11.07;9.57;;;;;;;;;;5052687;28;20452;-46
2021/09/07 12:43:19;;;;;;;11.93;8.30;;;;;;;;;;5052824;28;20409;-46
2021/09/07 12:45:46;;;;;;;11.07;9.93;;;;;;;;;;5052831;28;20402;-48
2021/09/07 12:48:12;;;;;;;10.93;9.70;;;;;;;;;;5052851;28;20497;-46
2021/09/07 12:50:38;;;;;;;12.10;8.47;;;;;;;;;;5052905;28;20424;-46
2021/09/07 12:53:07;;;;;;;13.90;8.50;;;;;;;;;;5052590;28;20488;-46
2021/09/07 12:55:33;;;;;;;10.70;9.50;;;;;;;;;;5052775;28;20401;-46
2021/09/07 12:57:59;;;;;;;14.03;10.60;;;;;;;;;;5052692;28;20905;-46
2021/09/07 13:00:25;;;;;;;10.33;8.97;;;;;;;;;;5048379;28;21369;-46
2021/09/07 13:02:51;;;;;;;10.67;9.07;;;;;;;;;;5052379;28;20405;-46
2021/09/07 13:05:17;;;;;;;9.00;8.10;;;;;;;;;;5052571;28;20411;-46
2021/09/07 13:07:43;;;;;;;10.37;8.90;;;;;;;;;;5052482;28;20527;-47
2021/09/07 13:10:09;;;;;;;11.13;9.97;;;;;;;;;;5052667;28;20427;-50
2021/09/07 13:12:35;;;;;;;10.43;9.47;;;;;;;;;;5052150;28;20166;-49
2021/09/07 13:15:01;;;;;;;12.17;9.20;;;;;;;;;;5052374;28;20795;-46
2021/09/07 13:17:26;;;;;;;9.70;8.80;;;;;;;;;;5052403;28;20551;-46
2021/09/07 13:19:53;;;;;;;11.70;10.50;;;;;;;;;;5052128;28;20464;-47
2021/09/07 13:22:19;;;;;;;12.40;9.00;;;;;;;;;;5051930;28;20448;-49
2021/09/07 13:24:45;;;;;;;9.70;8.70;;;;;;;;;;5052289;28;20723;-46
2021/09/07 13:27:11;;;;;;;11.20;8.10;;;;;;;;;;5052111;28;20417;-47
2021/09/07 13:29:37;;;;;;;14.47;10.10;;;;;;;;;;5048513;28;20922;-48
2021/09/07 13:32:03;;;;;;;11.60;8.33;;;;;;;;;;5051954;28;20393;-46
2021/09/07 13:34:29;;;;;;;10.80;8.80;;;;;;;;;;5052188;28;20428;-46
2021/09/07 13:36:55;;;;;;;19.73;16.00;;;;;;;;;;5052149;28;20398;-46
2021/09/07 13:39:21;;;;;;;15.90;12.67;;;;;;;;;;5050629;28;20429;-48
2021/09/07 13:41:47;;;;;;;10.07;9.10;;;;;;;;;;5051737;28;20897;-48
2021/09/07 13:44:13;;;;;;;12.40;10.00;;;;;;;;;;5051894;28;20409;-48
2021/09/07 13:46:39;;;;;;;12.53;8.03;;;;;;;;;;5051961;28;20410;-49
2021/09/07 13:49:05;;;;;;;10.47;8.47;;;;;;;;;;5051751;28;21078;-46
2021/09/07 13:51:31;;;;;;;11.20;9.47;;;;;;;;;;5051549;28;20429;-46
2021/09/07 13:53:57;;;;;;;10.83;9.43;;;;;;;;;;5051878;28;20411;-46
2021/09/07 13:56:23;;;;;;;8.60;7.80;;;;;;;;;;5051775;28;20402;-47
2021/09/07 13:58:49;;;;;;;11.83;9.00;;;;;;;;;;5051698;28;20413;-46
2021/09/07 14:01:15;;;;;;;9.73;7.83;;;;;;;;;;5047519;28;20530;-46
2021/09/07 14:03:41;;;;;;;11.10;9.30;;;;;;;;;;5050408;28;20425;-46
2021/09/07 14:06:07;;;;;;;9.57;8.40;;;;;;;;;;5051732;28;20472;-47
2021/09/07 14:08:33;;;;;;;10.73;7.57;;;;;;;;;;5051669;28;20447;-49
2021/09/07 14:11:00;;;;;;;10.13;8.53;;;;;;;;;;5051304;28;20435;-46
2021/09/07 14:13:27;;;;;;;11.20;7.50;;;;;;;;;;5051496;28;20480;-46
2021/09/07 14:15:53;;;;;;;7.77;6.97;;;;;;;;;;5051916;28;20774;-46
2021/09/07 14:18:20;;;;;;;7.10;6.40;;;;;;;;;;5051384;28;20412;-48
2021/09/07 14:20:46;;;;;;;6.97;6.27;;;;;;;;;;5051386;28;20464;-46
2021/09/07 14:23:14;;;;;;;7.47;6.77;;;;;;;;;;5051143;28;20421;-46
2021/09/07 14:25:40;;;;;;;8.00;7.30;;;;;;;;;;5051450;28;20397;-49
2021/09/07 14:28:06;;;;;;;13.10;8.03;;;;;;;;;;5051497;28;21091;-46